createdAt,value
2017-11-19T00:01:10.742Z,59.37
2017-11-19T00:03:39.235Z,58.37
2017-11-19T00:06:08.739Z,60.43
2017-11-19T00:08:38.139Z,63.13
2017-11-19T00:11:06.615Z,56.17
2017-11-19T00:13:35.814Z,59.30
2017-11-19T00:16:04.700Z,57.60
2017-11-19T00:18:33.595Z,55.90
2017-11-19T00:21:02.491Z,57.63
2017-11-19T00:23:31.376Z,56.57
2017-11-19T00:26:01.293Z,59.47
2017-11-19T00:28:30.411Z,57.77
2017-11-19T00:30:59.689Z,54.20
2017-11-19T00:33:28.578Z,51.50
2017-11-19T00:35:58.350Z,49.13
2017-11-19T00:38:27.391Z,46.37
2017-11-19T00:40:56.277Z,42.87
2017-11-19T00:43:31.890Z,40.60
2017-11-19T00:46:00.613Z,44.30
2017-11-19T00:48:29.503Z,42.57
2017-11-19T00:50:58.394Z,38.10
2017-11-19T00:53:27.840Z,35.00
2017-11-19T00:55:56.585Z,33.43
2017-11-19T00:58:25.694Z,32.90
2017-11-19T01:00:54.501Z,32.27
2017-11-19T01:03:24.287Z,29.00
2017-11-19T01:05:53.180Z,32.60
2017-11-19T01:08:22.896Z,28.40
2017-11-19T01:10:51.563Z,24.10
2017-11-19T01:13:20.220Z,25.50
2017-11-19T01:15:48.864Z,23.83
2017-11-19T01:18:17.448Z,24.07
2017-11-19T01:20:46.961Z,24.17
2017-11-19T01:23:16.483Z,27.00
2017-11-19T01:25:45.594Z,23.97
2017-11-19T01:28:14.421Z,23.70
2017-11-19T01:30:43.332Z,22.70
2017-11-19T01:33:12.835Z,22.13
2017-11-19T01:35:41.584Z,22.53
2017-11-19T01:38:10.206Z,23.07
2017-11-19T01:40:39.609Z,23.50
2017-11-19T01:43:08.365Z,24.40
2017-11-19T01:45:37.848Z,24.47
2017-11-19T01:48:06.483Z,24.97
2017-11-19T01:50:35.240Z,24.77
2017-11-19T01:53:03.902Z,26.37
2017-11-19T01:55:32.640Z,25.47
2017-11-19T01:58:01.333Z,24.90
2017-11-19T02:00:30.087Z,27.73
2017-11-19T02:02:59.532Z,29.03
2017-11-19T02:05:28.206Z,31.87
2017-11-19T02:07:56.889Z,30.10
2017-11-19T02:10:25.519Z,30.87
2017-11-19T02:12:54.192Z,30.80
2017-11-19T02:15:22.810Z,29.47
2017-11-19T02:17:51.422Z,30.77
2017-11-19T02:20:20.178Z,26.30
2017-11-19T02:22:48.878Z,26.27
2017-11-19T02:25:17.536Z,29.67
2017-11-19T02:27:46.190Z,26.67
2017-11-19T02:30:14.777Z,26.20
2017-11-19T02:32:43.364Z,23.53
2017-11-19T02:35:11.995Z,27.53
2017-11-19T02:37:40.616Z,24.57
2017-11-19T02:40:09.249Z,29.57
2017-11-19T02:42:37.924Z,23.70
2017-11-19T02:45:07.314Z,24.40
2017-11-19T02:47:36.105Z,24.43
2017-11-19T02:50:05.526Z,25.27
2017-11-19T02:52:34.137Z,24.37
2017-11-19T02:55:02.894Z,19.17
2017-11-19T02:57:31.618Z,24.40
2017-11-19T03:00:00.255Z,23.47
2017-11-19T03:02:28.938Z,18.60
2017-11-19T03:04:57.647Z,22.50
2017-11-19T03:07:26.255Z,23.00
2017-11-19T03:09:54.889Z,22.77
2017-11-19T03:12:24.319Z,21.97
2017-11-19T03:14:52.972Z,22.33
2017-11-19T03:17:21.638Z,22.00
2017-11-19T03:19:50.305Z,21.63
2017-11-19T03:22:19.111Z,20.90
2017-11-19T03:24:47.706Z,21.43
2017-11-19T03:27:16.363Z,21.70
2017-11-19T03:29:45.034Z,21.80
2017-11-19T03:32:13.657Z,21.70
2017-11-19T03:34:42.303Z,22.10
2017-11-19T03:37:11.003Z,21.30
2017-11-19T03:39:39.638Z,19.80
2017-11-19T03:42:08.360Z,20.50
2017-11-19T03:44:37.045Z,20.20
2017-11-19T03:47:05.772Z,20.57
2017-11-19T03:49:34.416Z,19.43
2017-11-19T03:52:03.035Z,16.97
2017-11-19T03:54:31.681Z,20.17
2017-11-19T03:57:01.099Z,20.57
2017-11-19T03:59:29.754Z,17.73
2017-11-19T04:01:59.246Z,20.83
2017-11-19T04:04:28.041Z,19.87
2017-11-19T04:06:57.701Z,19.53
2017-11-19T04:09:27.024Z,19.90
2017-11-19T04:11:55.954Z,21.60
2017-11-19T04:14:24.901Z,19.83
2017-11-19T04:16:53.700Z,20.93
2017-11-19T04:19:22.490Z,23.80
2017-11-19T04:21:51.122Z,22.70
2017-11-19T04:24:19.932Z,21.83
2017-11-19T04:26:48.855Z,22.60
2017-11-19T04:29:17.936Z,20.30
2017-11-19T04:31:47.562Z,23.33
2017-11-19T04:34:16.518Z,24.40
2017-11-19T04:36:45.396Z,22.10
2017-11-19T04:39:15.125Z,22.23
2017-11-19T04:41:44.003Z,21.70
2017-11-19T04:44:12.739Z,24.27
2017-11-19T04:46:41.530Z,25.13
2017-11-19T04:52:03.834Z,23.30
2017-11-19T04:54:32.775Z,24.40
2017-11-19T04:57:01.513Z,20.63
2017-11-19T04:59:30.301Z,22.00
2017-11-19T05:01:59.129Z,24.40
2017-11-19T05:04:28.095Z,22.30
2017-11-19T05:06:56.935Z,23.67
2017-11-19T05:09:25.825Z,25.10
2017-11-19T05:11:54.613Z,24.50
2017-11-19T05:14:23.474Z,24.63
2017-11-19T05:16:52.207Z,25.03
2017-11-19T05:19:20.997Z,26.50
2017-11-19T05:21:49.790Z,25.50
2017-11-19T05:24:18.516Z,24.63
2017-11-19T05:26:47.334Z,23.40
2017-11-19T05:29:16.776Z,23.70
2017-11-19T05:31:45.455Z,23.60
2017-11-19T05:34:14.333Z,22.83
2017-11-19T05:36:43.271Z,24.47
2017-11-19T05:39:12.829Z,22.80
2017-11-19T05:41:42.429Z,23.60
2017-11-19T05:44:11.261Z,25.50
2017-11-19T05:46:40.061Z,22.10
2017-11-19T05:49:08.823Z,23.07
2017-11-19T05:51:37.736Z,24.57
2017-11-19T05:54:06.602Z,22.17
2017-11-19T05:56:36.035Z,24.57
2017-11-19T05:59:04.875Z,23.00
2017-11-19T06:01:33.918Z,24.47
2017-11-19T06:04:02.711Z,24.93
2017-11-19T06:06:31.623Z,24.70
2017-11-19T06:09:01.152Z,22.77
2017-11-19T06:11:30.010Z,23.57
2017-11-19T06:13:58.805Z,22.20
2017-11-19T06:16:27.574Z,21.90
2017-11-19T06:18:56.319Z,18.50
2017-11-19T06:21:25.148Z,18.40
2017-11-19T06:23:53.911Z,18.90
2017-11-19T06:26:22.578Z,17.83
2017-11-19T06:28:51.478Z,19.73
2017-11-19T06:31:20.918Z,18.10
2017-11-19T06:33:49.695Z,20.77
2017-11-19T06:36:18.735Z,20.10
2017-11-19T06:38:47.938Z,21.87
2017-11-19T06:41:16.650Z,19.00
2017-11-19T06:43:45.316Z,18.07
2017-11-19T06:46:14.093Z,19.27
2017-11-19T06:48:42.760Z,19.20
2017-11-19T06:51:11.487Z,19.97
2017-11-19T06:53:40.182Z,21.20
2017-11-19T06:56:08.976Z,21.23
2017-11-19T06:58:37.815Z,21.30
2017-11-19T07:01:07.265Z,20.30
2017-11-19T07:03:35.915Z,21.17
2017-11-19T07:06:05.371Z,21.60
2017-11-19T07:08:34.748Z,21.67
2017-11-19T07:11:03.406Z,19.63
2017-11-19T07:13:32.056Z,20.70
2017-11-19T07:16:00.705Z,22.53
2017-11-19T07:18:29.344Z,20.80
2017-11-19T07:20:58.068Z,19.83
2017-11-19T07:23:27.760Z,17.90
2017-11-19T07:25:57.361Z,18.50
2017-11-19T07:28:26.121Z,18.43
2017-11-19T07:30:54.887Z,20.50
2017-11-19T07:33:23.614Z,18.57
2017-11-19T07:35:52.321Z,18.57
2017-11-19T07:38:21.794Z,18.27
2017-11-19T07:40:50.512Z,17.87
2017-11-19T07:43:19.161Z,16.67
2017-11-19T07:45:47.851Z,16.13
2017-11-19T07:48:16.579Z,17.03
2017-11-19T07:50:45.558Z,16.03
2017-11-19T07:53:14.286Z,15.50
2017-11-19T07:55:42.975Z,15.00
2017-11-19T07:58:11.917Z,15.43
2017-11-19T08:00:40.708Z,16.90
2017-11-19T08:03:09.479Z,18.37
2017-11-19T08:05:38.333Z,16.13
2017-11-19T08:08:06.969Z,15.93
2017-11-19T08:10:35.736Z,16.03
2017-11-19T08:13:04.434Z,16.20
2017-11-19T08:15:33.104Z,17.57
2017-11-19T08:18:02.562Z,16.87
2017-11-19T08:20:31.434Z,16.93
2017-11-19T08:23:00.048Z,15.53
2017-11-19T08:25:28.672Z,15.33
2017-11-19T08:27:57.491Z,15.60
2017-11-19T08:30:26.174Z,16.37
2017-11-19T08:32:54.808Z,16.30
2017-11-19T08:35:23.481Z,16.40
2017-11-19T08:37:52.321Z,16.83
2017-11-19T08:40:20.938Z,16.57
2017-11-19T08:42:53.848Z,17.60
2017-11-19T08:45:22.651Z,18.37
2017-11-19T08:47:51.358Z,18.23
2017-11-19T08:50:20.047Z,18.43
2017-11-19T08:52:48.704Z,18.10
2017-11-19T08:55:17.383Z,18.30
2017-11-19T08:57:46.152Z,16.97
2017-11-19T09:00:14.864Z,19.00
2017-11-19T09:02:43.682Z,18.03
2017-11-19T09:05:12.348Z,19.00
2017-11-19T09:07:41.132Z,18.07
2017-11-19T09:10:09.848Z,19.27
2017-11-19T09:12:38.748Z,18.00
2017-11-19T09:15:07.389Z,17.90
2017-11-19T09:17:36.079Z,17.20
2017-11-19T09:20:04.722Z,17.80
2017-11-19T09:22:33.407Z,16.50
2017-11-19T09:25:02.103Z,17.57
2017-11-19T09:27:30.728Z,17.90
2017-11-19T09:29:59.431Z,17.43
2017-11-19T09:32:28.094Z,17.10
2017-11-19T09:34:57.475Z,15.90
2017-11-19T09:37:26.867Z,18.13
2017-11-19T09:39:55.529Z,16.83
2017-11-19T09:42:24.248Z,17.20
2017-11-19T09:44:52.985Z,16.67
2017-11-19T09:47:21.627Z,16.43
2017-11-19T09:49:50.214Z,16.43
2017-11-19T09:52:19.672Z,18.77
2017-11-19T09:54:48.313Z,17.00
2017-11-19T09:57:17.011Z,17.10
2017-11-19T09:59:45.652Z,17.60
2017-11-19T10:02:14.417Z,18.53
2017-11-19T10:04:43.834Z,18.77
2017-11-19T10:07:12.441Z,17.13
2017-11-19T10:09:41.081Z,17.53
2017-11-19T10:12:09.747Z,17.47
2017-11-19T10:14:38.456Z,17.30
2017-11-19T10:17:07.134Z,18.70
2017-11-19T10:19:35.802Z,19.10
2017-11-19T10:22:04.522Z,18.20
2017-11-19T10:24:33.209Z,24.73
2017-11-19T10:27:01.896Z,19.13
2017-11-19T10:29:30.790Z,17.97
2017-11-19T10:31:59.614Z,18.70
2017-11-19T10:34:28.669Z,18.40
2017-11-19T10:36:57.355Z,18.10
2017-11-19T10:39:26.247Z,17.07
2017-11-19T10:41:55.344Z,18.00
2017-11-19T10:44:24.038Z,18.80
2017-11-19T10:46:52.928Z,19.93
2017-11-19T10:49:21.824Z,18.87
2017-11-19T10:51:50.499Z,18.90
2017-11-19T10:54:19.392Z,18.97
2017-11-19T10:56:48.286Z,18.30
2017-11-19T10:59:16.965Z,17.73
2017-11-19T11:01:46.023Z,20.17
2017-11-19T11:04:14.749Z,19.60
2017-11-19T11:06:43.437Z,21.00
2017-11-19T11:09:12.119Z,18.97
2017-11-19T11:11:40.812Z,19.07
2017-11-19T11:14:09.698Z,21.10
2017-11-19T11:16:38.808Z,20.27
2017-11-19T11:19:07.713Z,20.40
2017-11-19T11:21:37.191Z,19.30
2017-11-19T11:24:06.782Z,19.90
2017-11-19T11:26:44.512Z,18.57
2017-11-19T11:29:14.205Z,19.80
2017-11-19T11:31:43.140Z,20.10
2017-11-19T11:34:11.989Z,19.83
2017-11-19T11:36:40.778Z,20.10
2017-11-19T11:39:09.409Z,20.10
2017-11-19T11:41:38.360Z,20.47
2017-11-19T11:44:07.252Z,19.40
2017-11-19T11:46:36.137Z,20.97
2017-11-19T11:49:04.969Z,21.20
2017-11-19T11:51:33.712Z,21.27
2017-11-19T11:54:02.404Z,19.03
2017-11-19T11:56:31.293Z,20.20
2017-11-19T11:59:00.189Z,21.37
2017-11-19T12:01:29.235Z,19.33
2017-11-19T12:03:58.170Z,20.50
2017-11-19T12:06:27.069Z,21.67
2017-11-19T12:08:56.070Z,20.50
2017-11-19T12:11:25.664Z,22.50
2017-11-19T12:13:54.644Z,20.30
2017-11-19T12:16:24.054Z,19.80
2017-11-19T12:18:54.184Z,22.77
2017-11-19T12:21:23.193Z,20.60
2017-11-19T12:23:52.171Z,20.50
2017-11-19T12:26:21.094Z,20.40
2017-11-19T12:28:50.765Z,20.57
2017-11-19T12:31:19.659Z,21.97
2017-11-19T12:33:48.552Z,21.00
2017-11-19T12:36:17.641Z,22.20
2017-11-19T12:38:46.537Z,23.27
2017-11-19T12:41:15.427Z,26.20
2017-11-19T12:43:44.112Z,21.60
2017-11-19T12:46:13.003Z,21.17
2017-11-19T12:48:42.647Z,23.73
2017-11-19T12:51:11.551Z,23.73
2017-11-19T12:53:40.394Z,24.50
2017-11-19T12:56:10.716Z,23.10
2017-11-19T12:58:40.488Z,18.50
2017-11-19T13:01:09.934Z,19.20
2017-11-19T13:03:38.824Z,21.50
2017-11-19T13:06:08.545Z,21.03
2017-11-19T13:08:37.226Z,19.60
2017-11-19T13:11:06.057Z,19.10
2017-11-19T13:13:34.940Z,21.30
2017-11-19T13:16:04.105Z,22.17
2017-11-19T13:18:32.998Z,20.03
2017-11-19T13:21:01.888Z,20.30
2017-11-19T13:23:31.516Z,20.20
2017-11-19T13:26:00.574Z,21.43
2017-11-19T13:28:29.677Z,20.27
2017-11-19T13:30:58.576Z,20.10
2017-11-19T13:33:28.299Z,21.30
2017-11-19T13:35:57.548Z,24.97
2017-11-19T13:38:26.846Z,23.30
2017-11-19T13:40:55.879Z,18.90
2017-11-19T13:43:24.973Z,18.70
2017-11-19T13:45:53.809Z,20.90
2017-11-19T13:48:22.551Z,35.73
2017-11-19T13:50:51.883Z,20.23
2017-11-19T13:53:20.646Z,19.47
2017-11-19T13:55:49.554Z,21.27
2017-11-19T13:58:18.418Z,20.93
2017-11-19T14:00:47.318Z,22.40
2017-11-19T14:03:17.100Z,20.00
2017-11-19T14:05:45.920Z,19.23
2017-11-19T14:08:14.598Z,20.80
2017-11-19T14:10:43.232Z,18.93
2017-11-19T14:13:11.968Z,20.97
2017-11-19T14:15:40.657Z,18.37
2017-11-19T14:18:09.548Z,20.03
2017-11-19T14:20:38.436Z,19.07
2017-11-19T14:23:07.071Z,19.43
2017-11-19T14:25:36.246Z,19.50
2017-11-19T14:28:05.725Z,22.30
2017-11-19T14:30:34.617Z,23.30
2017-11-19T14:33:03.507Z,24.47
2017-11-19T14:35:32.192Z,25.10
2017-11-19T14:38:01.087Z,22.80
2017-11-19T14:40:29.976Z,24.90
2017-11-19T14:42:59.486Z,25.70
2017-11-19T14:45:28.175Z,24.20
2017-11-19T14:47:56.854Z,25.70
2017-11-19T14:50:25.549Z,24.13
2017-11-19T14:52:54.264Z,23.67
2017-11-19T14:55:23.120Z,20.43
2017-11-19T14:57:52.230Z,18.00
2017-11-19T15:00:21.921Z,18.70
2017-11-19T15:02:50.608Z,17.80
2017-11-19T15:05:19.300Z,21.13
2017-11-19T15:07:47.980Z,18.10
2017-11-19T15:10:16.871Z,16.33
2017-11-19T15:12:45.769Z,17.43
2017-11-19T15:15:14.404Z,17.13
2017-11-19T15:17:43.862Z,17.77
2017-11-19T15:20:12.562Z,16.80
2017-11-19T15:22:41.223Z,19.13
2017-11-19T15:25:10.030Z,17.90
2017-11-19T15:27:38.906Z,18.20
2017-11-19T15:30:07.798Z,17.67
2017-11-19T15:32:36.924Z,17.63
2017-11-19T15:35:05.783Z,17.90
2017-11-19T15:37:34.478Z,16.93
2017-11-19T15:40:03.652Z,17.73
2017-11-19T15:42:32.865Z,18.10
2017-11-19T15:45:02.373Z,17.37
2017-11-19T15:47:32.494Z,19.60
2017-11-19T15:50:01.387Z,18.20
2017-11-19T15:52:31.075Z,20.23
2017-11-19T15:55:00.273Z,20.07
2017-11-19T15:57:29.428Z,18.70
2017-11-19T15:59:59.508Z,19.60
2017-11-19T16:02:29.431Z,19.57
2017-11-19T16:04:58.237Z,18.97
2017-11-19T16:07:27.011Z,17.67
2017-11-19T16:09:55.893Z,17.00
2017-11-19T16:12:25.329Z,18.90
2017-11-19T16:14:54.488Z,17.67
2017-11-19T16:17:23.511Z,18.80
2017-11-19T16:19:52.481Z,19.40
2017-11-19T16:22:22.194Z,19.13
2017-11-19T16:24:51.059Z,18.10
2017-11-19T16:27:19.978Z,19.40
2017-11-19T16:29:49.689Z,19.23
2017-11-19T16:32:19.153Z,16.40
2017-11-19T16:34:47.873Z,17.53
2017-11-19T16:37:16.943Z,17.27
2017-11-19T16:39:52.618Z,18.17
2017-11-19T16:42:21.508Z,17.60
2017-11-19T16:44:50.380Z,17.60
2017-11-19T16:47:19.313Z,17.80
2017-11-19T16:49:48.265Z,18.10
2017-11-19T16:52:17.369Z,16.63
2017-11-19T16:54:46.987Z,19.77
2017-11-19T16:57:16.087Z,17.47
2017-11-19T16:59:45.195Z,18.70
2017-11-19T17:02:15.011Z,18.87
2017-11-19T17:04:43.983Z,18.80
2017-11-19T17:07:12.878Z,17.17
2017-11-19T17:09:42.678Z,17.73
2017-11-19T17:12:12.016Z,25.33
2017-11-19T17:14:41.218Z,23.60
2017-11-19T17:17:11.029Z,18.43
2017-11-19T17:19:39.956Z,17.47
2017-11-19T17:22:08.903Z,18.67
2017-11-19T17:24:37.979Z,18.10
2017-11-19T17:27:06.943Z,19.70
2017-11-19T17:29:36.076Z,17.23
2017-11-19T17:32:05.086Z,17.77
2017-11-19T17:34:34.979Z,16.83
2017-11-19T17:37:05.093Z,18.57
2017-11-19T17:39:34.064Z,18.90
2017-11-19T17:42:03.698Z,18.93
2017-11-19T17:44:33.242Z,18.20
2017-11-19T17:47:02.316Z,19.50
2017-11-19T17:49:31.088Z,19.10
2017-11-19T17:52:00.093Z,18.43
2017-11-19T17:54:28.872Z,29.23
2017-11-19T17:56:58.196Z,19.87
2017-11-19T17:59:27.385Z,18.63
2017-11-19T18:01:56.286Z,17.20
2017-11-19T18:04:25.258Z,18.10
2017-11-19T18:06:54.931Z,25.27
2017-11-19T18:09:24.355Z,18.83
2017-11-19T18:11:53.605Z,20.93
2017-11-19T18:14:22.612Z,20.67
2017-11-19T18:16:51.696Z,19.00
2017-11-19T18:19:21.647Z,19.70
2017-11-19T18:21:51.033Z,21.03
2017-11-19T18:24:20.194Z,20.70
2017-11-19T18:26:50.246Z,21.10
2017-11-19T18:29:20.067Z,22.47
2017-11-19T18:31:49.222Z,25.00
2017-11-19T18:34:19.221Z,20.80
2017-11-19T18:36:48.516Z,21.87
2017-11-19T18:39:18.432Z,21.77
2017-11-19T18:41:47.527Z,22.20
2017-11-19T18:44:17.422Z,23.00
2017-11-19T18:46:46.456Z,22.27
2017-11-19T18:49:15.816Z,21.20
2017-11-19T18:51:44.734Z,23.00
2017-11-19T18:54:14.280Z,21.90
2017-11-19T18:56:43.356Z,22.80
2017-11-19T18:59:12.279Z,21.80
2017-11-19T19:01:41.646Z,21.77
2017-11-19T19:04:10.932Z,23.40
2017-11-19T19:06:40.000Z,25.07
2017-11-19T19:09:09.436Z,26.27
2017-11-19T19:11:38.745Z,26.33
2017-11-19T19:14:08.203Z,27.40
2017-11-19T19:16:36.968Z,25.57
2017-11-19T19:19:06.916Z,25.13
2017-11-19T19:21:35.936Z,26.33
2017-11-19T19:24:04.958Z,26.63
2017-11-19T19:26:34.331Z,29.97
2017-11-19T19:29:03.337Z,27.67
2017-11-19T19:31:32.397Z,26.70
2017-11-19T19:34:01.668Z,25.80
2017-11-19T19:36:31.327Z,23.77
2017-11-19T19:39:00.583Z,26.03
2017-11-19T19:41:29.606Z,25.73
2017-11-19T19:43:58.542Z,25.67
2017-11-19T19:46:27.715Z,24.17
2017-11-19T19:48:56.915Z,25.50
2017-11-19T19:51:25.904Z,26.77
2017-11-19T19:53:54.997Z,27.90
2017-11-19T19:56:23.788Z,29.57
2017-11-19T19:58:52.470Z,27.23
2017-11-19T20:01:21.158Z,26.60
2017-11-19T20:03:50.869Z,30.10
2017-11-19T20:06:20.375Z,32.63
2017-11-19T20:08:49.380Z,31.00
2017-11-19T20:11:19.069Z,31.00
2017-11-19T20:13:48.482Z,30.17
2017-11-19T20:16:17.264Z,29.23
2017-11-19T20:18:46.160Z,29.17
2017-11-19T20:21:15.867Z,27.53
2017-11-19T20:23:44.656Z,24.35
2017-11-19T20:26:14.370Z,25.13
2017-11-19T20:28:43.257Z,25.23
2017-11-19T20:31:12.149Z,25.83
2017-11-19T20:33:41.047Z,27.03
2017-11-19T20:36:09.926Z,22.70
2017-11-19T20:38:39.472Z,24.13
2017-11-19T20:41:08.254Z,21.57
2017-11-19T20:43:37.222Z,20.07
2017-11-19T20:46:06.112Z,19.03
2017-11-19T20:48:34.896Z,20.00
2017-11-19T20:51:03.947Z,19.10
2017-11-19T20:53:33.397Z,19.87
2017-11-19T20:56:02.291Z,18.90
2017-11-19T20:58:30.971Z,19.30
2017-11-19T21:00:59.759Z,21.47
2017-11-19T21:03:28.651Z,18.60
2017-11-19T21:05:57.546Z,21.50
2017-11-19T21:08:26.537Z,22.67
2017-11-19T21:10:55.433Z,20.77
2017-11-19T21:13:24.115Z,23.40
2017-11-19T21:15:52.804Z,21.93
2017-11-19T21:18:21.692Z,21.43
2017-11-19T21:20:50.379Z,23.50
2017-11-19T21:23:19.069Z,22.23
2017-11-19T21:25:47.956Z,21.93
2017-11-19T21:28:18.894Z,22.03
2017-11-19T21:30:45.537Z,21.23
2017-11-19T21:33:14.465Z,21.00
2017-11-19T21:35:44.338Z,21.70
2017-11-19T21:38:13.229Z,22.07
2017-11-19T21:40:41.919Z,19.23
2017-11-19T21:43:10.806Z,20.97
2017-11-19T21:45:39.501Z,21.40
2017-11-19T21:48:08.177Z,22.50
2017-11-19T21:50:37.079Z,23.30
2017-11-19T21:53:05.906Z,23.57
2017-11-19T21:55:34.646Z,22.70
2017-11-19T21:58:03.241Z,22.73
2017-11-19T22:00:32.021Z,21.77
2017-11-19T22:03:04.185Z,23.27
2017-11-19T22:05:33.193Z,22.47
2017-11-19T22:08:02.072Z,21.70
2017-11-19T22:10:31.783Z,21.00
2017-11-19T22:13:00.469Z,24.40
2017-11-19T22:15:29.158Z,24.27
2017-11-19T22:17:58.048Z,23.63
2017-11-19T22:20:26.728Z,26.10
2017-11-19T22:22:55.419Z,23.87
2017-11-19T22:25:24.101Z,23.57
2017-11-19T22:27:52.788Z,22.47
2017-11-19T22:30:21.478Z,22.10
2017-11-19T22:32:50.467Z,21.87
2017-11-19T22:35:19.854Z,23.73
2017-11-19T22:37:48.456Z,21.30
2017-11-19T22:40:17.347Z,22.00
2017-11-19T22:42:45.952Z,28.40
2017-11-19T22:45:15.536Z,22.33
2017-11-19T22:47:44.427Z,23.33
2017-11-19T22:50:13.416Z,21.97
2017-11-19T22:52:42.107Z,21.33
2017-11-19T22:55:10.999Z,22.07
2017-11-19T22:57:39.844Z,23.50
2017-11-19T23:00:09.293Z,21.80
2017-11-19T23:02:38.082Z,22.47
2017-11-19T23:05:06.971Z,22.87
2017-11-19T23:07:35.660Z,22.77
2017-11-19T23:10:04.553Z,21.43
2017-11-19T23:12:33.252Z,23.50
2017-11-19T23:15:01.921Z,22.83
2017-11-19T23:17:30.568Z,26.40
2017-11-19T23:19:59.293Z,22.53
2017-11-19T23:22:27.982Z,23.20
2017-11-19T23:24:56.872Z,23.10
2017-11-19T23:27:25.763Z,25.70
2017-11-19T23:29:55.477Z,24.77
2017-11-19T23:32:24.977Z,22.10
2017-11-19T23:34:53.869Z,23.00
2017-11-19T23:37:22.759Z,24.50
2017-11-19T23:39:51.557Z,25.07
2017-11-19T23:42:28.352Z,21.67
2017-11-19T23:44:57.113Z,23.00
2017-11-19T23:47:25.800Z,22.10
2017-11-19T23:49:54.489Z,21.83
2017-11-19T23:52:23.376Z,21.20
2017-11-19T23:54:52.067Z,22.73
2017-11-19T23:57:22.732Z,22.93
2017-11-19T23:59:52.407Z,23.40
